sensor_id;sensor_type;location;lat;lon;timestamp;pressure;altitude;pressure_sealevel;temperature;humidity
58072;BME280;60383;46.626;18.866;2023-05-25T00:01:23;100514.69;;;16.90;78.89
58072;BME280;60383;46.626;18.866;2023-05-25T00:03:48;100514.00;;;16.88;78.82
58072;BME280;60383;46.626;18.866;2023-05-25T00:06:16;100509.16;;;16.90;78.64
58072;BME280;60383;46.626;18.866;2023-05-25T00:08:42;100514.72;;;16.75;78.92
58072;BME280;60383;46.626;18.866;2023-05-25T00:11:09;100506.38;;;16.90;78.60
58072;BME280;60383;46.626;18.866;2023-05-25T00:13:35;100510.38;;;16.66;79.58
58072;BME280;60383;46.626;18.866;2023-05-25T00:16:00;100513.56;;;16.48;80.20
58072;BME280;60383;46.626;18.866;2023-05-25T00:18:26;100517.06;;;16.57;80.18
58072;BME280;60383;46.626;18.866;2023-05-25T00:20:51;100514.41;;;16.49;80.50
58072;BME280;60383;46.626;18.866;2023-05-25T00:23:19;100513.16;;;16.51;80.75
58072;BME280;60383;46.626;18.866;2023-05-25T00:25:46;100507.94;;;16.56;80.30
58072;BME280;60383;46.626;18.866;2023-05-25T00:28:11;100517.78;;;16.66;80.04
58072;BME280;60383;46.626;18.866;2023-05-25T00:30:37;100514.34;;;16.42;80.19
58072;BME280;60383;46.626;18.866;2023-05-25T00:33:02;100518.16;;;16.41;80.96
58072;BME280;60383;46.626;18.866;2023-05-25T00:35:28;100520.53;;;16.44;80.98
58072;BME280;60383;46.626;18.866;2023-05-25T00:37:54;100519.41;;;16.38;81.24
58072;BME280;60383;46.626;18.866;2023-05-25T00:40:19;100515.88;;;16.44;81.19
58072;BME280;60383;46.626;18.866;2023-05-25T00:42:46;100519.50;;;16.30;81.65
58072;BME280;60383;46.626;18.866;2023-05-25T00:45:11;100526.56;;;16.33;81.54
58072;BME280;60383;46.626;18.866;2023-05-25T00:47:38;100527.91;;;16.37;81.36
58072;BME280;60383;46.626;18.866;2023-05-25T00:50:07;100528.06;;;16.35;81.25
58072;BME280;60383;46.626;18.866;2023-05-25T00:52:33;100524.66;;;16.33;81.37
58072;BME280;60383;46.626;18.866;2023-05-25T00:55:01;100529.41;;;16.39;81.22
58072;BME280;60383;46.626;18.866;2023-05-25T00:57:28;100528.75;;;16.37;80.94
58072;BME280;60383;46.626;18.866;2023-05-25T00:59:59;100524.94;;;16.38;81.19
58072;BME280;60383;46.626;18.866;2023-05-25T01:02:26;100528.88;;;16.14;82.01
58072;BME280;60383;46.626;18.866;2023-05-25T01:04:55;100532.00;;;16.26;81.72
58072;BME280;60383;46.626;18.866;2023-05-25T01:07:25;100525.53;;;16.19;81.81
58072;BME280;60383;46.626;18.866;2023-05-25T01:09:59;100529.03;;;16.27;81.86
58072;BME280;60383;46.626;18.866;2023-05-25T01:12:27;100522.75;;;16.34;81.25
58072;BME280;60383;46.626;18.866;2023-05-25T01:14:54;100538.94;;;16.37;81.13
58072;BME280;60383;46.626;18.866;2023-05-25T01:17:20;100534.78;;;16.26;81.50
58072;BME280;60383;46.626;18.866;2023-05-25T01:19:46;100540.47;;;16.24;82.10
58072;BME280;60383;46.626;18.866;2023-05-25T01:22:44;100535.88;;;16.32;81.28
58072;BME280;60383;46.626;18.866;2023-05-25T01:25:12;100532.56;;;16.21;81.88
58072;BME280;60383;46.626;18.866;2023-05-25T01:27:43;100534.47;;;16.21;81.93
58072;BME280;60383;46.626;18.866;2023-05-25T01:30:13;100539.03;;;16.13;82.41
58072;BME280;60383;46.626;18.866;2023-05-25T01:32:41;100541.63;;;16.15;82.47
58072;BME280;60383;46.626;18.866;2023-05-25T01:35:08;100542.78;;;16.06;82.71
58072;BME280;60383;46.626;18.866;2023-05-25T01:37:37;100544.69;;;16.05;82.97
58072;BME280;60383;46.626;18.866;2023-05-25T01:40:09;100541.13;;;15.96;82.96
58072;BME280;60383;46.626;18.866;2023-05-25T01:42:35;100546.59;;;16.20;82.41
58072;BME280;60383;46.626;18.866;2023-05-25T01:45:01;100554.38;;;16.01;82.98
58072;BME280;60383;46.626;18.866;2023-05-25T01:50:32;100562.19;;;15.97;83.37
58072;BME280;60383;46.626;18.866;2023-05-25T01:53:03;100563.63;;;15.93;83.57
58072;BME280;60383;46.626;18.866;2023-05-25T01:55:36;100563.63;;;15.93;83.51
58072;BME280;60383;46.626;18.866;2023-05-25T01:58:04;100557.19;;;15.78;84.33
58072;BME280;60383;46.626;18.866;2023-05-25T02:00:31;100562.34;;;15.81;84.54
58072;BME280;60383;46.626;18.866;2023-05-25T02:02:58;100564.19;;;15.89;84.51
58072;BME280;60383;46.626;18.866;2023-05-25T02:05:25;100567.63;;;15.91;84.09
58072;BME280;60383;46.626;18.866;2023-05-25T02:07:52;100564.09;;;15.82;84.72
58072;BME280;60383;46.626;18.866;2023-05-25T02:10:18;100561.84;;;15.86;84.34
58072;BME280;60383;46.626;18.866;2023-05-25T02:12:44;100565.69;;;15.76;84.77
58072;BME280;60383;46.626;18.866;2023-05-25T02:15:10;100564.41;;;15.87;85.09
58072;BME280;60383;46.626;18.866;2023-05-25T02:17:36;100556.66;;;15.83;85.07
58072;BME280;60383;46.626;18.866;2023-05-25T02:20:03;100562.34;;;15.81;84.94
58072;BME280;60383;46.626;18.866;2023-05-25T02:22:31;100562.69;;;16.01;84.82
58072;BME280;60383;46.626;18.866;2023-05-25T02:24:57;100572.88;;;16.01;84.47
58072;BME280;60383;46.626;18.866;2023-05-25T02:27:22;100568.75;;;15.96;84.83
58072;BME280;60383;46.626;18.866;2023-05-25T02:29:48;100570.31;;;15.99;84.92
58072;BME280;60383;46.626;18.866;2023-05-25T02:32:13;100566.59;;;16.07;84.76
58072;BME280;60383;46.626;18.866;2023-05-25T02:34:39;100572.19;;;15.99;84.98
58072;BME280;60383;46.626;18.866;2023-05-25T02:37:05;100567.91;;;16.11;84.55
58072;BME280;60383;46.626;18.866;2023-05-25T02:39:30;100571.72;;;15.95;85.48
58072;BME280;60383;46.626;18.866;2023-05-25T02:41:56;100570.78;;;16.03;85.46
58072;BME280;60383;46.626;18.866;2023-05-25T02:44:21;100574.00;;;15.91;85.95
58072;BME280;60383;46.626;18.866;2023-05-25T02:46:47;100571.25;;;16.06;85.63
58072;BME280;60383;46.626;18.866;2023-05-25T02:49:13;100571.72;;;15.95;86.16
58072;BME280;60383;46.626;18.866;2023-05-25T02:51:38;100576.56;;;15.93;86.45
58072;BME280;60383;46.626;18.866;2023-05-25T02:54:04;100581.25;;;15.92;86.40
58072;BME280;60383;46.626;18.866;2023-05-25T02:56:29;100582.78;;;15.95;86.85
58072;BME280;60383;46.626;18.866;2023-05-25T02:58:55;100589.44;;;16.01;86.42
58072;BME280;60383;46.626;18.866;2023-05-25T03:01:21;100592.28;;;16.07;86.12
58072;BME280;60383;46.626;18.866;2023-05-25T03:03:47;100597.25;;;16.12;86.03
58072;BME280;60383;46.626;18.866;2023-05-25T03:06:17;100600.22;;;16.10;86.37
58072;BME280;60383;46.626;18.866;2023-05-25T03:08:42;100605.16;;;16.00;86.59
58072;BME280;60383;46.626;18.866;2023-05-25T03:11:08;100596.78;;;15.93;87.03
58072;BME280;60383;46.626;18.866;2023-05-25T03:13:34;100592.00;;;16.02;87.34
58072;BME280;60383;46.626;18.866;2023-05-25T03:16:00;100599.75;;;16.07;87.02
58072;BME280;60383;46.626;18.866;2023-05-25T03:18:26;100599.63;;;16.00;87.46
58072;BME280;60383;46.626;18.866;2023-05-25T03:20:51;100602.22;;;16.02;87.46
58072;BME280;60383;46.626;18.866;2023-05-25T03:23:17;100609.19;;;16.12;87.22
58072;BME280;60383;46.626;18.866;2023-05-25T03:25:42;100606.03;;;16.16;87.40
58072;BME280;60383;46.626;18.866;2023-05-25T03:28:08;100598.69;;;16.23;87.03
58072;BME280;60383;46.626;18.866;2023-05-25T03:30:34;100603.53;;;16.06;87.61
58072;BME280;60383;46.626;18.866;2023-05-25T03:32:59;100605.94;;;16.09;87.64
58072;BME280;60383;46.626;18.866;2023-05-25T03:35:25;100611.16;;;15.89;88.89
58072;BME280;60383;46.626;18.866;2023-05-25T03:37:50;100604.78;;;16.03;88.58
58072;BME280;60383;46.626;18.866;2023-05-25T03:40:16;100616.31;;;16.07;88.66
58072;BME280;60383;46.626;18.866;2023-05-25T03:42:41;100605.81;;;16.17;88.26
58072;BME280;60383;46.626;18.866;2023-05-25T03:45:07;100610.63;;;16.23;88.46
58072;BME280;60383;46.626;18.866;2023-05-25T03:47:34;100611.84;;;16.06;90.17
58072;BME280;60383;46.626;18.866;2023-05-25T03:50:00;100606.31;;;16.06;89.83
58072;BME280;60383;46.626;18.866;2023-05-25T03:52:26;100613.16;;;16.10;90.24
58072;BME280;60383;46.626;18.866;2023-05-25T03:54:51;100614.31;;;16.16;90.21
58072;BME280;60383;46.626;18.866;2023-05-25T03:57:17;100611.06;;;16.12;90.84
58072;BME280;60383;46.626;18.866;2023-05-25T03:59:42;100612.69;;;16.06;91.76
58072;BME280;60383;46.626;18.866;2023-05-25T04:02:07;100619.75;;;16.24;91.38
58072;BME280;60383;46.626;18.866;2023-05-25T04:04:33;100624.88;;;16.27;91.25
58072;BME280;60383;46.626;18.866;2023-05-25T04:06:59;100622.72;;;16.37;90.44
58072;BME280;60383;46.626;18.866;2023-05-25T04:09:24;100625.94;;;16.56;89.76
58072;BME280;60383;46.626;18.866;2023-05-25T04:11:50;100626.13;;;16.54;89.96
58072;BME280;60383;46.626;18.866;2023-05-25T04:14:15;100634.13;;;16.64;89.52
58072;BME280;60383;46.626;18.866;2023-05-25T04:16:41;100627.91;;;16.62;89.84
58072;BME280;60383;46.626;18.866;2023-05-25T04:19:06;100633.34;;;16.70;89.68
58072;BME280;60383;46.626;18.866;2023-05-25T04:21:32;100631.53;;;16.77;89.47
58072;BME280;60383;46.626;18.866;2023-05-25T04:23:57;100627.91;;;16.77;90.02
58072;BME280;60383;46.626;18.866;2023-05-25T04:26:23;100635.72;;;16.88;89.69
58072;BME280;60383;46.626;18.866;2023-05-25T04:28:51;100638.19;;;16.98;89.75
58072;BME280;60383;46.626;18.866;2023-05-25T04:31:19;100643.88;;;17.12;89.85
58072;BME280;60383;46.626;18.866;2023-05-25T04:33:45;100644.34;;;17.15;89.16
58072;BME280;60383;46.626;18.866;2023-05-25T04:36:10;100645.16;;;17.31;88.84
58072;BME280;60383;46.626;18.866;2023-05-25T04:38:36;100643.44;;;17.30;88.66
58072;BME280;60383;46.626;18.866;2023-05-25T04:41:01;100648.19;;;17.36;88.44
58072;BME280;60383;46.626;18.866;2023-05-25T04:43:27;100654.84;;;17.42;87.92
58072;BME280;60383;46.626;18.866;2023-05-25T04:45:57;100652.09;;;17.42;88.24
58072;BME280;60383;46.626;18.866;2023-05-25T04:48:24;100653.41;;;17.46;88.06
58072;BME280;60383;46.626;18.866;2023-05-25T04:50:53;100650.31;;;17.55;87.42
58072;BME280;60383;46.626;18.866;2023-05-25T04:53:21;100649.50;;;17.62;86.90
58072;BME280;60383;46.626;18.866;2023-05-25T04:55:46;100644.38;;;17.59;87.32
58072;BME280;60383;46.626;18.866;2023-05-25T04:58:13;100652.13;;;17.70;87.05
58072;BME280;60383;46.626;18.866;2023-05-25T05:00:39;100648.50;;;17.91;86.14
58072;BME280;60383;46.626;18.866;2023-05-25T05:03:04;100656.00;;;18.19;85.57
58072;BME280;60383;46.626;18.866;2023-05-25T05:05:30;100647.41;;;18.42;85.04
58072;BME280;60383;46.626;18.866;2023-05-25T05:07:56;100656.69;;;18.63;83.11
58072;BME280;60383;46.626;18.866;2023-05-25T05:10:22;100661.66;;;18.81;81.92
58072;BME280;60383;46.626;18.866;2023-05-25T05:12:47;100666.47;;;18.94;82.00
58072;BME280;60383;46.626;18.866;2023-05-25T05:15:13;100663.69;;;18.94;81.87
58072;BME280;60383;46.626;18.866;2023-05-25T05:17:38;100655.41;;;19.07;80.91
58072;BME280;60383;46.626;18.866;2023-05-25T05:20:04;100653.50;;;19.14;80.85
58072;BME280;60383;46.626;18.866;2023-05-25T05:22:31;100657.56;;;19.19;81.34
58072;BME280;60383;46.626;18.866;2023-05-25T05:24:57;100658.03;;;19.29;81.47
58072;BME280;60383;46.626;18.866;2023-05-25T05:27:23;100655.47;;;19.27;80.65
58072;BME280;60383;46.626;18.866;2023-05-25T05:29:52;100662.31;;;19.31;80.68
58072;BME280;60383;46.626;18.866;2023-05-25T05:32:18;100657.00;;;19.50;79.77
58072;BME280;60383;46.626;18.866;2023-05-25T05:34:43;100664.06;;;19.46;79.50
58072;BME280;60383;46.626;18.866;2023-05-25T05:37:08;100673.19;;;19.33;79.16
58072;BME280;60383;46.626;18.866;2023-05-25T05:39:34;100670.44;;;19.46;79.43
58072;BME280;60383;46.626;18.866;2023-05-25T05:41:59;100673.50;;;19.72;78.95
58072;BME280;60383;46.626;18.866;2023-05-25T05:44:25;100670.31;;;19.75;78.49
58072;BME280;60383;46.626;18.866;2023-05-25T05:46:51;100669.47;;;20.01;77.44
58072;BME280;60383;46.626;18.866;2023-05-25T05:49:16;100669.88;;;20.18;76.42
58072;BME280;60383;46.626;18.866;2023-05-25T05:51:42;100672.91;;;20.23;75.19
58072;BME280;60383;46.626;18.866;2023-05-25T05:54:07;100672.25;;;20.08;76.69
58072;BME280;60383;46.626;18.866;2023-05-25T05:56:33;100681.44;;;20.35;75.40
58072;BME280;60383;46.626;18.866;2023-05-25T05:58:58;100678.66;;;20.35;75.08
58072;BME280;60383;46.626;18.866;2023-05-25T06:01:24;100686.75;;;20.43;75.52
58072;BME280;60383;46.626;18.866;2023-05-25T06:03:49;100679.47;;;20.49;74.74
58072;BME280;60383;46.626;18.866;2023-05-25T06:06:17;100681.16;;;20.64;74.25
58072;BME280;60383;46.626;18.866;2023-05-25T06:08:42;100679.66;;;20.61;74.45
58072;BME280;60383;46.626;18.866;2023-05-25T06:11:08;100686.13;;;20.41;74.27
58072;BME280;60383;46.626;18.866;2023-05-25T06:13:33;100685.50;;;20.39;75.39
58072;BME280;60383;46.626;18.866;2023-05-25T06:15:59;100689.56;;;20.37;75.61
58072;BME280;60383;46.626;18.866;2023-05-25T06:18:24;100689.34;;;20.45;75.81
58072;BME280;60383;46.626;18.866;2023-05-25T06:20:50;100698.09;;;20.49;75.43
58072;BME280;60383;46.626;18.866;2023-05-25T06:23:15;100700.25;;;20.33;74.86
58072;BME280;60383;46.626;18.866;2023-05-25T06:25:43;100701.13;;;20.27;75.64
58072;BME280;60383;46.626;18.866;2023-05-25T06:28:09;100710.53;;;20.19;75.54
58072;BME280;60383;46.626;18.866;2023-05-25T06:30:34;100706.88;;;20.25;75.08
58072;BME280;60383;46.626;18.866;2023-05-25T06:33:00;100706.03;;;20.25;75.67
58072;BME280;60383;46.626;18.866;2023-05-25T06:35:26;100713.97;;;20.15;75.29
58072;BME280;60383;46.626;18.866;2023-05-25T06:37:51;100710.09;;;20.16;76.30
58072;BME280;60383;46.626;18.866;2023-05-25T06:40:16;100710.50;;;20.33;76.09
58072;BME280;60383;46.626;18.866;2023-05-25T06:42:42;100709.47;;;20.07;76.58
58072;BME280;60383;46.626;18.866;2023-05-25T06:45:08;100713.53;;;20.04;76.39
58072;BME280;60383;46.626;18.866;2023-05-25T06:47:34;100710.34;;;20.07;77.26
58072;BME280;60383;46.626;18.866;2023-05-25T06:50:00;100712.47;;;19.92;77.60
58072;BME280;60383;46.626;18.866;2023-05-25T06:52:26;100711.19;;;20.08;75.95
58072;BME280;60383;46.626;18.866;2023-05-25T06:54:55;100714.19;;;20.06;75.80
58072;BME280;60383;46.626;18.866;2023-05-25T06:57:22;100714.59;;;20.03;75.96
58072;BME280;60383;46.626;18.866;2023-05-25T06:59:48;100717.13;;;19.91;77.33
58072;BME280;60383;46.626;18.866;2023-05-25T07:02:13;100718.69;;;20.07;75.56
58072;BME280;60383;46.626;18.866;2023-05-25T07:04:39;100720.78;;;20.12;76.77
58072;BME280;60383;46.626;18.866;2023-05-25T07:07:04;100719.75;;;20.06;77.03
58072;BME280;60383;46.626;18.866;2023-05-25T07:09:31;100711.81;;;20.23;76.16
58072;BME280;60383;46.626;18.866;2023-05-25T07:11:56;100717.16;;;20.25;75.54
58072;BME280;60383;46.626;18.866;2023-05-25T07:14:22;100718.44;;;20.22;76.83
58072;BME280;60383;46.626;18.866;2023-05-25T07:16:48;100716.94;;;20.33;76.13
58072;BME280;60383;46.626;18.866;2023-05-25T07:19:13;100721.66;;;20.19;76.92
58072;BME280;60383;46.626;18.866;2023-05-25T07:21:39;100728.72;;;20.29;75.95
58072;BME280;60383;46.626;18.866;2023-05-25T07:24:04;100723.38;;;20.27;75.96
58072;BME280;60383;46.626;18.866;2023-05-25T07:26:31;100726.56;;;20.24;75.89
58072;BME280;60383;46.626;18.866;2023-05-25T07:28:57;100724.66;;;20.18;76.63
58072;BME280;60383;46.626;18.866;2023-05-25T07:31:23;100721.00;;;20.24;76.59
58072;BME280;60383;46.626;18.866;2023-05-25T07:33:48;100728.28;;;20.32;76.20
58072;BME280;60383;46.626;18.866;2023-05-25T07:36:15;100734.28;;;20.29;75.99
58072;BME280;60383;46.626;18.866;2023-05-25T07:38:41;100732.13;;;20.37;75.99
58072;BME280;60383;46.626;18.866;2023-05-25T07:41:06;100732.31;;;20.69;74.03
58072;BME280;60383;46.626;18.866;2023-05-25T07:43:32;100734.88;;;20.84;73.08
58072;BME280;60383;46.626;18.866;2023-05-25T07:45:58;100737.00;;;20.82;73.65
58072;BME280;60383;46.626;18.866;2023-05-25T07:48:25;100731.56;;;21.08;72.36
58072;BME280;60383;46.626;18.866;2023-05-25T07:50:50;100730.94;;;21.05;72.14
58072;BME280;60383;46.626;18.866;2023-05-25T07:53:16;100734.13;;;21.09;71.80
58072;BME280;60383;46.626;18.866;2023-05-25T07:55:42;100731.22;;;21.36;72.56
58072;BME280;60383;46.626;18.866;2023-05-25T07:58:07;100736.19;;;21.34;71.26
58072;BME280;60383;46.626;18.866;2023-05-25T08:00:33;100743.13;;;21.11;71.59
58072;BME280;60383;46.626;18.866;2023-05-25T08:02:58;100743.72;;;21.27;72.28
58072;BME280;60383;46.626;18.866;2023-05-25T08:05:24;100745.16;;;21.36;70.63
58072;BME280;60383;46.626;18.866;2023-05-25T08:07:49;100748.63;;;21.31;71.13
58072;BME280;60383;46.626;18.866;2023-05-25T08:10:15;100740.66;;;21.42;71.38
58072;BME280;60383;46.626;18.866;2023-05-25T08:12:40;100742.94;;;21.51;70.23
58072;BME280;60383;46.626;18.866;2023-05-25T08:15:06;100738.44;;;21.50;70.32
58072;BME280;60383;46.626;18.866;2023-05-25T08:17:32;100751.81;;;21.35;70.70
58072;BME280;60383;46.626;18.866;2023-05-25T08:19:57;100743.81;;;21.52;70.54
58072;BME280;60383;46.626;18.866;2023-05-25T08:22:23;100744.50;;;21.41;69.20
58072;BME280;60383;46.626;18.866;2023-05-25T08:24:48;100742.38;;;21.36;70.27
58072;BME280;60383;46.626;18.866;2023-05-25T08:27:14;100756.78;;;21.26;69.81
58072;BME280;60383;46.626;18.866;2023-05-25T08:29:40;100752.91;;;21.34;70.38
58072;BME280;60383;46.626;18.866;2023-05-25T08:32:05;100743.91;;;21.32;70.23
58072;BME280;60383;46.626;18.866;2023-05-25T08:34:31;100753.97;;;21.33;70.88
58072;BME280;60383;46.626;18.866;2023-05-25T08:36:57;100749.16;;;21.53;69.85
58072;BME280;60383;46.626;18.866;2023-05-25T08:39:22;100745.06;;;21.56;69.32
58072;BME280;60383;46.626;18.866;2023-05-25T08:41:49;100745.97;;;21.50;69.76
58072;BME280;60383;46.626;18.866;2023-05-25T08:44:15;100741.84;;;21.59;69.00
58072;BME280;60383;46.626;18.866;2023-05-25T08:46:41;100750.66;;;21.56;68.78
58072;BME280;60383;46.626;18.866;2023-05-25T08:49:10;100746.56;;;21.65;68.24
58072;BME280;60383;46.626;18.866;2023-05-25T08:51:37;100751.19;;;21.78;67.97
58072;BME280;60383;46.626;18.866;2023-05-25T08:54:08;100757.44;;;21.74;68.47
58072;BME280;60383;46.626;18.866;2023-05-25T08:59:35;100758.72;;;21.71;68.06
58072;BME280;60383;46.626;18.866;2023-05-25T09:02:25;100763.41;;;21.77;68.50
58072;BME280;60383;46.626;18.866;2023-05-25T09:04:54;100759.94;;;21.89;67.40
58072;BME280;60383;46.626;18.866;2023-05-25T09:07:20;100751.81;;;21.80;66.99
58072;BME280;60383;46.626;18.866;2023-05-25T09:09:47;100754.84;;;21.79;67.69
58072;BME280;60383;46.626;18.866;2023-05-25T09:12:14;100769.13;;;21.57;68.69
58072;BME280;60383;46.626;18.866;2023-05-25T09:14:40;100778.63;;;21.81;68.60
58072;BME280;60383;46.626;18.866;2023-05-25T09:17:11;100771.50;;;21.85;68.13
58072;BME280;60383;46.626;18.866;2023-05-25T09:19:37;100772.88;;;22.08;66.01
58072;BME280;60383;46.626;18.866;2023-05-25T09:22:03;100771.91;;;22.21;65.63
58072;BME280;60383;46.626;18.866;2023-05-25T09:24:29;100774.63;;;22.02;66.09
58072;BME280;60383;46.626;18.866;2023-05-25T09:26:55;100777.06;;;22.17;65.42
58072;BME280;60383;46.626;18.866;2023-05-25T09:29:21;100773.72;;;22.09;65.61
58072;BME280;60383;46.626;18.866;2023-05-25T09:31:46;100772.25;;;22.31;62.90
58072;BME280;60383;46.626;18.866;2023-05-25T09:34:13;100780.63;;;22.31;64.54
58072;BME280;60383;46.626;18.866;2023-05-25T09:36:42;100773.09;;;22.32;65.09
58072;BME280;60383;46.626;18.866;2023-05-25T09:39:11;100780.78;;;22.43;65.38
58072;BME280;60383;46.626;18.866;2023-05-25T09:41:40;100776.13;;;22.30;64.84
58072;BME280;60383;46.626;18.866;2023-05-25T09:44:06;100775.22;;;22.37;66.28
58072;BME280;60383;46.626;18.866;2023-05-25T09:46:32;100772.03;;;22.33;67.25
58072;BME280;60383;46.626;18.866;2023-05-25T09:49:05;100772.44;;;22.62;63.45
58072;BME280;60383;46.626;18.866;2023-05-25T09:51:32;100771.94;;;22.90;63.78
58072;BME280;60383;46.626;18.866;2023-05-25T09:54:02;100777.47;;;23.16;59.69
58072;BME280;60383;46.626;18.866;2023-05-25T09:56:31;100765.63;;;23.20;61.91
58072;BME280;60383;46.626;18.866;2023-05-25T09:58:59;100766.69;;;23.38;61.10
58072;BME280;60383;46.626;18.866;2023-05-25T10:01:25;100768.78;;;23.42;62.13
58072;BME280;60383;46.626;18.866;2023-05-25T10:03:51;100769.97;;;23.35;61.29
58072;BME280;60383;46.626;18.866;2023-05-25T10:06:24;100774.41;;;23.24;61.07
58072;BME280;60383;46.626;18.866;2023-05-25T10:08:51;100779.47;;;23.08;61.24
58072;BME280;60383;46.626;18.866;2023-05-25T10:11:18;100775.22;;;23.06;59.74
58072;BME280;60383;46.626;18.866;2023-05-25T10:13:46;100776.47;;;23.10;62.16
58072;BME280;60383;46.626;18.866;2023-05-25T10:16:15;100782.69;;;23.31;62.14
58072;BME280;60383;46.626;18.866;2023-05-25T10:18:47;100769.88;;;23.41;60.32
58072;BME280;60383;46.626;18.866;2023-05-25T10:21:15;100777.53;;;23.65;60.12
58072;BME280;60383;46.626;18.866;2023-05-25T10:23:47;100771.56;;;23.61;60.93
58072;BME280;60383;46.626;18.866;2023-05-25T10:26:18;100771.78;;;24.08;60.60
58072;BME280;60383;46.626;18.866;2023-05-25T10:28:48;100770.59;;;24.52;58.50
58072;BME280;60383;46.626;18.866;2023-05-25T10:31:15;100759.16;;;24.65;57.05
58072;BME280;60383;46.626;18.866;2023-05-25T10:33:42;100757.13;;;24.84;54.74
58072;BME280;60383;46.626;18.866;2023-05-25T10:36:08;100751.50;;;25.08;54.24
58072;BME280;60383;46.626;18.866;2023-05-25T10:38:36;100747.09;;;25.24;55.44
58072;BME280;60383;46.626;18.866;2023-05-25T10:41:04;100745.00;;;25.43;52.61
58072;BME280;60383;46.626;18.866;2023-05-25T10:43:30;100741.38;;;25.60;51.48
58072;BME280;60383;46.626;18.866;2023-05-25T10:45:56;100738.78;;;25.41;51.35
58072;BME280;60383;46.626;18.866;2023-05-25T10:48:22;100739.13;;;25.45;51.87
58072;BME280;60383;46.626;18.866;2023-05-25T10:50:50;100731.22;;;25.71;49.08
58072;BME280;60383;46.626;18.866;2023-05-25T10:53:17;100747.19;;;25.29;51.25
58072;BME280;60383;46.626;18.866;2023-05-25T10:58:17;100725.91;;;25.57;50.32
58072;BME280;60383;46.626;18.866;2023-05-25T11:00:56;100732.94;;;25.89;49.38
58072;BME280;60383;46.626;18.866;2023-05-25T11:03:41;100726.66;;;25.98;49.90
58072;BME280;60383;46.626;18.866;2023-05-25T11:06:08;100723.75;;;25.47;50.24
58072;BME280;60383;46.626;18.866;2023-05-25T11:11:16;100715.78;;;26.02;49.29
58072;BME280;60383;46.626;18.866;2023-05-25T11:13:45;100728.97;;;25.56;50.33
58072;BME280;60383;46.626;18.866;2023-05-25T11:16:22;100716.44;;;25.46;50.60
58072;BME280;60383;46.626;18.866;2023-05-25T11:18:57;100718.09;;;25.59;50.15
58072;BME280;60383;46.626;18.866;2023-05-25T11:26:23;100710.28;;;25.20;49.16
58072;BME280;60383;46.626;18.866;2023-05-25T11:28:53;100720.00;;;25.30;48.43
58072;BME280;60383;46.626;18.866;2023-05-25T11:31:20;100710.13;;;25.39;48.72
58072;BME280;60383;46.626;18.866;2023-05-25T11:33:47;100705.63;;;25.67;48.90
58072;BME280;60383;46.626;18.866;2023-05-25T11:36:13;100707.94;;;25.70;47.62
58072;BME280;60383;46.626;18.866;2023-05-25T11:38:44;100710.75;;;25.41;48.87
58072;BME280;60383;46.626;18.866;2023-05-25T11:41:37;100699.22;;;25.55;49.18
58072;BME280;60383;46.626;18.866;2023-05-25T11:44:05;100691.53;;;25.79;47.53
58072;BME280;60383;46.626;18.866;2023-05-25T11:46:31;100695.19;;;25.79;48.93
58072;BME280;60383;46.626;18.866;2023-05-25T11:48:59;100685.00;;;25.90;47.38
58072;BME280;60383;46.626;18.866;2023-05-25T11:51:26;100689.50;;;25.45;49.29
58072;BME280;60383;46.626;18.866;2023-05-25T11:53:53;100682.22;;;25.61;47.83
58072;BME280;60383;46.626;18.866;2023-05-25T11:56:19;100690.94;;;25.94;49.60
58072;BME280;60383;46.626;18.866;2023-05-25T11:58:47;100681.31;;;26.19;47.69
58072;BME280;60383;46.626;18.866;2023-05-25T12:01:21;100688.53;;;26.31;47.82
58072;BME280;60383;46.626;18.866;2023-05-25T12:03:49;100683.44;;;26.11;48.83
58072;BME280;60383;46.626;18.866;2023-05-25T12:06:27;100686.75;;;26.25;47.79
58072;BME280;60383;46.626;18.866;2023-05-25T12:08:54;100675.81;;;26.46;46.88
58072;BME280;60383;46.626;18.866;2023-05-25T12:11:30;100672.38;;;26.61;44.74
58072;BME280;60383;46.626;18.866;2023-05-25T12:13:56;100670.78;;;26.65;45.47
58072;BME280;60383;46.626;18.866;2023-05-25T12:16:23;100663.75;;;26.45;45.42
58072;BME280;60383;46.626;18.866;2023-05-25T12:18:50;100670.00;;;26.70;45.32
58072;BME280;60383;46.626;18.866;2023-05-25T12:21:16;100666.25;;;26.64;45.93
58072;BME280;60383;46.626;18.866;2023-05-25T12:23:42;100669.00;;;26.98;44.58
58072;BME280;60383;46.626;18.866;2023-05-25T12:26:12;100661.78;;;26.85;45.44
58072;BME280;60383;46.626;18.866;2023-05-25T12:28:38;100662.13;;;26.89;44.10
58072;BME280;60383;46.626;18.866;2023-05-25T12:31:24;100654.75;;;26.83;44.29
58072;BME280;60383;46.626;18.866;2023-05-25T12:34:15;100665.59;;;26.57;45.79
58072;BME280;60383;46.626;18.866;2023-05-25T12:36:51;100663.38;;;26.76;45.74
58072;BME280;60383;46.626;18.866;2023-05-25T12:39:31;100663.25;;;26.71;45.77
58072;BME280;60383;46.626;18.866;2023-05-25T12:42:02;100656.31;;;26.96;46.05
58072;BME280;60383;46.626;18.866;2023-05-25T12:44:29;100655.78;;;26.76;45.23
58072;BME280;60383;46.626;18.866;2023-05-25T12:47:17;100652.00;;;26.88;44.57
58072;BME280;60383;46.626;18.866;2023-05-25T12:49:53;100653.25;;;26.75;43.34
58072;BME280;60383;46.626;18.866;2023-05-25T12:52:38;100636.72;;;26.78;44.62
58072;BME280;60383;46.626;18.866;2023-05-25T12:55:24;100637.22;;;26.75;45.36
58072;BME280;60383;46.626;18.866;2023-05-25T12:57:55;100629.16;;;27.01;43.26